Time;durP1;ratioP1;P1;durP2;ratioP2;P2;SDS_P1;SDS_P2;PMS_P1;PMS_P2;Temp;Humidity;BMP_temperature;BMP_pressure;BME280_temperature;BME280_humidity;BME280_pressure;Samples;Min_cycle;Max_cycle;Signal;HPM_P1;HPM_P2
2023/09/17 00:01:16;;;;;;;12.30;8.35;;;;;;;14.30;100.00;100891.59;5047364;28;20426;-88
2023/09/17 00:03:46;;;;;;;12.35;7.95;;;;;;;14.31;100.00;100881.44;5031903;28;21080;-88
2023/09/17 00:06:14;;;;;;;17.23;8.13;;;;;;;14.28;100.00;100883.69;5030222;28;20775;-88
2023/09/17 00:08:47;;;;;;;12.95;8.85;;;;;;;14.31;100.00;100887.75;5028509;28;20418;-89
2023/09/17 00:11:16;;;;;;;11.60;8.10;;;;;;;14.36;100.00;100878.63;5029113;28;20430;-89
2023/09/17 00:13:46;;;;;;;14.00;8.23;;;;;;;14.38;100.00;100882.69;5030149;28;20430;-88
2023/09/17 00:16:19;;;;;;;12.90;8.02;;;;;;;14.38;100.00;100885.44;5029951;28;20430;-89
2023/09/17 00:18:49;;;;;;;12.85;8.73;;;;;;;14.26;100.00;100885.09;5029351;28;20876;-88
2023/09/17 00:21:17;;;;;;;13.65;9.07;;;;;;;14.20;100.00;100881.63;5045247;28;20902;-89
2023/09/17 00:23:45;;;;;;;12.93;9.13;;;;;;;14.17;100.00;100892.34;5028214;28;20419;-89
2023/09/17 00:26:13;;;;;;;14.30;9.23;;;;;;;14.15;100.00;100892.66;5038391;28;20428;-88
2023/09/17 00:28:46;;;;;;;13.37;8.97;;;;;;;14.14;100.00;100887.50;5029636;28;20411;-89
2023/09/17 00:31:20;;;;;;;13.48;9.20;;;;;;;14.17;100.00;100893.19;5031437;28;21086;-88
2023/09/17 00:33:54;;;;;;;13.50;8.98;;;;;;;14.10;100.00;100901.78;5031064;28;20783;-88
2023/09/17 00:36:27;;;;;;;11.82;8.55;;;;;;;14.03;100.00;100884.09;5046006;28;20926;-89
2023/09/17 00:39:02;;;;;;;12.38;8.48;;;;;;;14.02;100.00;100888.78;5028956;28;20431;-88
2023/09/17 00:41:31;;;;;;;13.15;8.63;;;;;;;14.01;100.00;100884.41;5029284;28;20415;-88
2023/09/17 00:43:59;;;;;;;12.85;9.18;;;;;;;13.97;100.00;100885.31;5030807;28;20414;-88
2023/09/17 00:46:27;;;;;;;15.65;8.63;;;;;;;13.92;100.00;100887.00;5036513;28;20426;-88
2023/09/17 00:48:57;;;;;;;13.40;8.70;;;;;;;13.91;100.00;100881.84;5028684;28;20423;-88
2023/09/17 00:51:26;;;;;;;13.48;8.77;;;;;;;13.89;100.00;100884.88;5029328;28;20430;-88
2023/09/17 00:53:57;;;;;;;12.82;8.60;;;;;;;13.90;100.00;100883.75;5044678;28;20414;-88
2023/09/17 00:56:26;;;;;;;12.48;8.77;;;;;;;13.86;100.00;100881.91;5042826;28;20909;-88
2023/09/17 00:58:57;;;;;;;12.90;9.15;;;;;;;13.86;100.00;100879.19;5040037;28;20431;-89
2023/09/17 01:01:30;;;;;;;15.02;10.85;;;;;;;13.83;100.00;100874.31;5032097;28;20436;-88
2023/09/17 01:04:07;;;;;;;18.42;11.75;;;;;;;13.84;100.00;100874.00;5028049;28;20430;-88
2023/09/17 01:06:42;;;;;;;15.90;11.25;;;;;;;13.85;100.00;100869.34;5029061;28;20422;-88
2023/09/17 01:09:11;;;;;;;17.05;11.23;;;;;;;13.88;100.00;100871.47;5028651;28;20894;-88
2023/09/17 01:11:41;;;;;;;15.40;10.90;;;;;;;13.88;100.00;100871.47;5023923;28;20423;-88
2023/09/17 01:14:14;;;;;;;14.90;10.85;;;;;;;13.90;100.00;100874.75;5044022;28;20435;-88
2023/09/17 01:16:45;;;;;;;17.10;10.97;;;;;;;13.89;100.00;100863.00;5045097;28;20411;-88
2023/09/17 01:19:27;;;;;;;16.42;10.52;;;;;;;13.90;100.00;100864.59;5028217;28;20430;-88
2023/09/17 01:22:06;;;;;;;14.43;10.55;;;;;;;13.90;100.00;100864.59;5029188;28;20435;-88
2023/09/17 01:24:45;;;;;;;15.33;9.90;;;;;;;13.89;100.00;100856.69;5028612;28;20437;-87
2023/09/17 01:27:21;;;;;;;13.10;9.90;;;;;;;13.84;100.00;100867.72;5028236;28;20423;-88
2023/09/17 01:29:49;;;;;;;14.75;9.68;;;;;;;13.81;100.00;100862.84;5028942;28;20423;-88
2023/09/17 01:32:17;;;;;;;14.75;10.25;;;;;;;13.82;100.00;100869.94;5030259;28;21112;-88
2023/09/17 01:34:53;;;;;;;13.27;9.15;;;;;;;13.82;100.00;100865.28;5030417;28;20415;-88
2023/09/17 01:37:31;;;;;;;11.67;8.60;;;;;;;13.78;100.00;100869.72;5045039;28;20513;-88
2023/09/17 01:40:05;;;;;;;14.55;9.10;;;;;;;13.77;100.00;100877.09;5029734;28;20419;-88
2023/09/17 01:42:42;;;;;;;12.90;8.85;;;;;;;13.72;100.00;100868.16;5018401;28;20922;-88
2023/09/17 01:45:12;;;;;;;12.25;8.40;;;;;;;13.73;100.00;100878.00;5027103;28;20454;-88
2023/09/17 01:47:47;;;;;;;13.43;8.90;;;;;;;13.65;100.00;100878.69;5040183;28;20427;-88
2023/09/17 01:50:23;;;;;;;12.43;8.93;;;;;;;13.68;100.00;100881.63;5027884;28;20423;-88
2023/09/17 01:52:56;;;;;;;14.95;9.38;;;;;;;13.63;100.00;100884.44;5030498;28;20430;-88
2023/09/17 01:55:30;;;;;;;13.82;9.57;;;;;;;13.63;100.00;100878.97;5024956;28;20891;-87
2023/09/17 01:57:59;;;;;;;14.75;9.30;;;;;;;13.65;100.00;100886.88;5028326;28;20422;-87
2023/09/17 02:00:28;;;;;;;14.70;9.60;;;;;;;13.62;100.00;100882.81;5045286;28;20422;-87
2023/09/17 02:02:56;;;;;;;14.02;9.55;;;;;;;13.61;100.00;100881.19;5029843;28;20419;-87
2023/09/17 02:05:25;;;;;;;14.60;9.57;;;;;;;13.58;100.00;100874.38;5030231;28;20430;-88
2023/09/17 02:07:59;;;;;;;14.98;9.60;;;;;;;13.58;100.00;100885.31;5027515;28;20433;-88
2023/09/17 02:10:27;;;;;;;14.82;9.93;;;;;;;13.56;100.00;100892.19;5031765;28;20419;-88
2023/09/17 02:13:02;;;;;;;14.00;9.68;;;;;;;13.48;100.00;100881.91;5037513;28;20430;-88
2023/09/17 02:15:31;;;;;;;14.77;9.38;;;;;;;13.47;100.00;100875.63;5041516;28;20434;-88
2023/09/17 02:17:59;;;;;;;13.73;9.63;;;;;;;13.40;100.00;100869.72;5047264;28;20438;-89
2023/09/17 02:20:32;;;;;;;13.07;9.32;;;;;;;13.39;100.00;100871.63;5031317;28;20427;-87
2023/09/17 02:23:00;;;;;;;14.80;9.27;;;;;;;13.38;100.00;100880.13;5048775;28;20426;-87
2023/09/17 02:25:29;;;;;;;15.17;10.13;;;;;;;13.39;100.00;100868.09;5032841;28;20879;-88
2023/09/17 02:28:04;;;;;;;15.25;10.43;;;;;;;13.35;100.00;100875.22;5032971;28;20430;-87
2023/09/17 02:30:37;;;;;;;14.57;9.70;;;;;;;13.28;100.00;100870.09;5032073;28;20427;-88
2023/09/17 02:33:10;;;;;;;13.65;9.52;;;;;;;13.29;100.00;100871.75;5031797;28;21331;-87
2023/09/17 02:35:38;;;;;;;14.67;9.90;;;;;;;13.27;100.00;100868.47;5031541;28;20427;-87
2023/09/17 02:38:12;;;;;;;14.13;9.23;;;;;;;13.29;100.00;100876.41;5031347;28;20411;-88
2023/09/17 02:40:45;;;;;;;15.13;10.40;;;;;;;13.27;100.00;100882.97;5047277;28;20465;-88
2023/09/17 02:43:14;;;;;;;15.02;10.95;;;;;;;13.31;100.00;100877.72;5031925;28;20418;-88
2023/09/17 02:45:43;;;;;;;15.75;10.70;;;;;;;13.34;100.00;100879.88;5032124;28;20426;-88
2023/09/17 02:48:16;;;;;;;17.17;10.75;;;;;;;13.37;100.00;100878.50;5044996;28;20789;-88
2023/09/17 02:50:50;;;;;;;17.17;10.40;;;;;;;13.39;100.00;100871.63;5030954;28;20427;-88
2023/09/17 02:53:23;;;;;;;16.83;10.85;;;;;;;13.40;100.00;100872.44;5031359;28;20510;-88
2023/09/17 02:55:57;;;;;;;15.80;11.20;;;;;;;13.39;100.00;100879.81;5033999;28;20430;-88
2023/09/17 02:58:27;;;;;;;15.73;10.88;;;;;;;13.37;100.00;100868.38;5047680;28;20431;-88
2023/09/17 03:01:01;;;;;;;16.63;11.73;;;;;;;13.37;100.00;100873.84;5031329;28;20411;-88
2023/09/17 03:03:29;;;;;;;15.82;11.07;;;;;;;13.39;100.00;100868.88;5032882;28;20415;-88
2023/09/17 03:06:02;;;;;;;14.90;10.75;;;;;;;13.42;100.00;100872.97;5030764;28;20430;-88
2023/09/17 03:08:41;;;;;;;15.23;11.13;;;;;;;13.41;100.00;100857.69;5031795;28;20914;-87
2023/09/17 03:11:13;;;;;;;18.20;11.37;;;;;;;13.43;100.00;100872.66;5030989;28;20914;-87
2023/09/17 03:13:46;;;;;;;15.43;11.37;;;;;;;13.40;100.00;100866.97;5046639;28;20938;-88
2023/09/17 03:16:16;;;;;;;17.42;11.13;;;;;;;13.38;100.00;100867.28;5031475;28;20926;-88
2023/09/17 03:18:46;;;;;;;15.63;10.73;;;;;;;13.30;100.00;100870.63;5030961;28;20433;-88
2023/09/17 03:21:19;;;;;;;18.13;11.35;;;;;;;13.26;100.00;100872.34;5031144;28;20423;-88
2023/09/17 03:23:48;;;;;;;15.02;10.95;;;;;;;13.25;100.00;100868.78;5031132;28;20431;-88
2023/09/17 03:26:22;;;;;;;16.03;10.60;;;;;;;13.26;100.00;100866.88;5045919;28;20430;-87
2023/09/17 03:28:51;;;;;;;14.43;10.73;;;;;;;13.24;100.00;100874.53;5030740;28;20445;-88
2023/09/17 03:31:19;;;;;;;14.88;10.18;;;;;;;13.23;100.00;100862.78;5030407;28;20414;-88
2023/09/17 03:33:53;;;;;;;18.10;10.75;;;;;;;13.19;100.00;100863.69;5047314;28;20426;-88
2023/09/17 03:36:21;;;;;;;14.98;10.40;;;;;;;13.17;100.00;100868.63;5030585;28;20435;-87
2023/09/17 03:38:50;;;;;;;15.73;10.77;;;;;;;13.08;100.00;100869.25;5030546;28;20427;-88
2023/09/17 03:41:18;;;;;;;16.38;11.05;;;;;;;13.06;100.00;100874.22;5029531;28;20423;-87
2023/09/17 03:43:53;;;;;;;16.50;11.50;;;;;;;13.06;100.00;100876.94;5031260;28;20445;-88
2023/09/17 03:46:26;;;;;;;16.27;11.73;;;;;;;12.99;100.00;100876.47;5046784;28;20414;-87
2023/09/17 03:48:59;;;;;;;16.27;11.52;;;;;;;12.98;100.00;100884.97;5030628;28;20509;-88
2023/09/17 03:51:29;;;;;;;18.33;12.10;;;;;;;12.94;100.00;100876.56;5030330;28;20422;-87
2023/09/17 03:54:02;;;;;;;17.80;11.98;;;;;;;12.88;100.00;100875.75;5046945;28;20432;-88
2023/09/17 03:56:35;;;;;;;17.40;11.75;;;;;;;12.87;100.00;100876.06;5029213;28;20434;-87
2023/09/17 03:59:06;;;;;;;17.73;12.90;;;;;;;12.85;100.00;100873.63;5032252;28;20903;-87
2023/09/17 04:01:34;;;;;;;18.15;12.05;;;;;;;12.83;100.00;100878.56;5029898;28;20434;-87
2023/09/17 04:04:07;;;;;;;15.32;11.80;;;;;;;12.81;100.00;100871.78;5046564;28;20419;-87
2023/09/17 04:06:41;;;;;;;18.77;12.32;;;;;;;12.83;100.00;100877.75;5029935;28;21123;-87
2023/09/17 04:09:09;;;;;;;18.50;12.25;;;;;;;12.81;100.00;100874.50;5029101;28;20426;-87
2023/09/17 04:11:37;;;;;;;17.35;12.40;;;;;;;12.81;100.00;100877.25;5043227;28;20930;-87
2023/09/17 04:14:13;;;;;;;17.03;12.67;;;;;;;12.76;100.00;100872.66;5044200;28;20462;-87
2023/09/17 04:16:46;;;;;;;18.15;11.80;;;;;;;12.79;100.00;100879.44;5029391;28;20430;-87
2023/09/17 04:19:15;;;;;;;19.25;11.63;;;;;;;12.79;100.00;100880.25;5029632;28;20435;-87
2023/09/17 04:21:45;;;;;;;18.73;10.75;;;;;;;12.82;100.00;100879.66;5046286;28;20783;-87
2023/09/17 04:24:18;;;;;;;16.70;10.70;;;;;;;12.80;100.00;100879.16;5031063;28;20494;-87
2023/09/17 04:26:52;;;;;;;15.70;11.00;;;;;;;12.82;100.00;100876.94;5046221;28;20408;-87
2023/09/17 04:29:27;;;;;;;14.57;10.43;;;;;;;12.82;100.00;100887.06;5030801;28;20430;-87
2023/09/17 04:32:00;;;;;;;14.13;10.32;;;;;;;12.81;100.00;100883.50;5026312;28;20434;-87
2023/09/17 04:34:33;;;;;;;16.58;11.00;;;;;;;12.82;100.00;100889.78;5046082;28;20446;-87
2023/09/17 04:37:06;;;;;;;15.02;10.23;;;;;;;12.81;100.00;100890.91;5045525;28;20426;-87
2023/09/17 04:39:39;;;;;;;15.20;10.70;;;;;;;12.78;100.00;100889.56;5030537;28;20429;-87
2023/09/17 04:42:13;;;;;;;14.18;10.70;;;;;;;12.75;100.00;100887.41;5045958;28;20419;-87
2023/09/17 04:44:48;;;;;;;13.77;10.10;;;;;;;12.72;100.00;100894.25;5026005;28;20430;-87
2023/09/17 04:47:21;;;;;;;14.18;10.52;;;;;;;12.70;100.00;100892.91;5030683;28;20430;-87
2023/09/17 04:49:49;;;;;;;16.67;11.45;;;;;;;12.67;100.00;100893.50;5029348;28;20430;-87
2023/09/17 04:52:22;;;;;;;17.45;11.82;;;;;;;12.69;100.00;100888.53;5044992;28;20427;-87
2023/09/17 04:54:51;;;;;;;15.45;11.32;;;;;;;12.70;100.00;100899.16;5029486;28;20418;-87
2023/09/17 04:57:24;;;;;;;16.93;11.87;;;;;;;12.72;100.00;100894.25;5042210;28;20419;-86
2023/09/17 04:59:53;;;;;;;15.73;11.57;;;;;;;12.71;100.00;100895.34;5028877;28;20415;-87
2023/09/17 05:02:27;;;;;;;18.73;12.50;;;;;;;12.70;100.00;100901.91;5044699;28;20421;-87
2023/09/17 05:05:00;;;;;;;16.43;11.77;;;;;;;12.70;100.00;100901.91;5028783;28;20423;-87
2023/09/17 05:07:29;;;;;;;19.58;12.38;;;;;;;12.69;100.00;100904.94;5030063;28;20426;-87
2023/09/17 05:09:57;;;;;;;17.67;12.20;;;;;;;12.68;100.00;100904.13;5029118;28;20430;-87
2023/09/17 05:12:25;;;;;;;17.02;12.73;;;;;;;12.66;100.00;100898.13;5045788;28;20654;-87
2023/09/17 05:15:00;;;;;;;18.75;12.27;;;;;;;12.69;100.00;100902.19;5028322;28;20490;-87
2023/09/17 05:17:33;;;;;;;18.75;12.48;;;;;;;12.67;100.00;100904.41;5028382;28;20760;-87
2023/09/17 05:20:06;;;;;;;18.65;12.50;;;;;;;12.69;100.00;100907.66;5029367;28;20441;-87
2023/09/17 05:22:39;;;;;;;18.98;12.20;;;;;;;12.68;100.00;100900.59;5029018;28;20440;-87
2023/09/17 05:25:09;;;;;;;19.15;11.77;;;;;;;12.70;100.00;100918.28;5028802;28;20431;-87
2023/09/17 05:27:38;;;;;;;16.35;11.95;;;;;;;12.66;100.00;100910.97;5028869;28;20419;-88
2023/09/17 05:30:13;;;;;;;17.25;11.85;;;;;;;12.68;100.00;100906.84;5028555;28;20895;-87
2023/09/17 05:32:46;;;;;;;16.70;12.02;;;;;;;12.80;100.00;100906.47;5027670;28;20434;-87
2023/09/17 05:35:19;;;;;;;18.45;11.48;;;;;;;12.86;100.00;100918.16;5045466;28;20419;-87
2023/09/17 05:37:47;;;;;;;16.50;11.27;;;;;;;12.91;100.00;100926.28;5026611;28;20431;-87
2023/09/17 05:40:21;;;;;;;15.98;10.60;;;;;;;12.91;100.00;100929.84;5025808;28;20422;-88
2023/09/17 05:42:50;;;;;;;15.85;10.80;;;;;;;12.92;100.00;100931.44;5049275;28;20407;-87
2023/09/17 05:45:26;;;;;;;15.75;10.70;;;;;;;12.96;100.00;100936.34;5033082;28;20446;-88
2023/09/17 05:47:54;;;;;;;16.52;10.77;;;;;;;12.99;100.00;100938.50;5032783;28;20419;-88
2023/09/17 05:50:28;;;;;;;16.30;11.35;;;;;;;13.02;100.00;100932.44;5048395;28;20442;-88
2023/09/17 05:53:01;;;;;;;16.98;11.10;;;;;;;13.03;100.00;100939.56;5047687;28;20797;-88
2023/09/17 05:55:34;;;;;;;15.40;10.25;;;;;;;13.05;100.00;100929.97;5032494;28;20423;-88
2023/09/17 05:58:07;;;;;;;16.30;10.75;;;;;;;13.12;100.00;100935.09;5031874;28;20414;-88
2023/09/17 06:00:37;;;;;;;15.13;11.27;;;;;;;13.15;100.00;100944.63;5032511;28;20427;-88
2023/09/17 06:03:10;;;;;;;15.32;10.80;;;;;;;13.16;100.00;100943.50;5049736;28;20431;-87
2023/09/17 06:05:42;;;;;;;14.95;10.65;;;;;;;13.21;100.00;100944.25;5031754;28;20434;-88
2023/09/17 06:08:11;;;;;;;14.80;10.65;;;;;;;13.29;100.00;100945.53;5026781;28;20426;-88
2023/09/17 06:10:44;;;;;;;16.73;10.90;;;;;;;13.35;100.00;100949.03;5031178;28;20481;-88
2023/09/17 06:13:12;;;;;;;19.23;12.20;;;;;;;13.43;100.00;100943.75;5047855;28;20431;-87
2023/09/17 06:15:43;;;;;;;16.85;11.90;;;;;;;13.52;100.00;100946.66;5032272;28;20423;-89
2023/09/17 06:18:11;;;;;;;18.10;12.65;;;;;;;13.59;100.00;100946.31;5025539;28;20431;-88
2023/09/17 06:20:45;;;;;;;17.10;12.55;;;;;;;13.66;100.00;100943.19;5029917;28;20434;-88
2023/09/17 06:23:19;;;;;;;20.10;13.73;;;;;;;13.73;100.00;100944.47;5025607;28;20426;-88
2023/09/17 06:25:48;;;;;;;18.75;12.73;;;;;;;13.89;100.00;100939.59;5036722;28;20435;-88
2023/09/17 06:28:16;;;;;;;18.77;13.27;;;;;;;14.04;100.00;100954.16;5031387;28;20437;-88
2023/09/17 06:30:51;;;;;;;20.92;14.10;;;;;;;14.11;100.00;100951.84;5031949;28;20780;-88
2023/09/17 06:33:25;;;;;;;20.45;13.68;;;;;;;14.18;100.00;100955.00;5044086;28;20426;-88
2023/09/17 06:35:58;;;;;;;21.13;14.77;;;;;;;14.24;100.00;100955.78;5033136;28;20423;-88
2023/09/17 06:38:27;;;;;;;19.00;14.18;;;;;;;14.28;100.00;100949.41;5035414;28;20438;-88
2023/09/17 06:41:00;;;;;;;20.70;13.70;;;;;;;14.36;100.00;100952.56;5047419;28;20441;-88
2023/09/17 06:43:33;;;;;;;21.27;14.13;;;;;;;14.39;100.00;100947.31;5033406;28;20423;-88
2023/09/17 06:46:03;;;;;;;20.83;14.52;;;;;;;14.50;100.00;100941.66;5031660;28;20419;-88
2023/09/17 06:48:36;;;;;;;20.42;13.75;;;;;;;14.61;100.00;100954.88;5029175;28;20415;-88
2023/09/17 06:51:09;;;;;;;19.90;14.20;;;;;;;14.69;100.00;100961.59;5028617;28;20435;-89
2023/09/17 06:53:38;;;;;;;18.40;13.20;;;;;;;14.75;100.00;100960.41;5030828;28;20442;-88
2023/09/17 06:56:08;;;;;;;18.10;12.60;;;;;;;14.86;100.00;100958.31;5031450;28;20431;-89
2023/09/17 06:58:42;;;;;;;21.23;13.65;;;;;;;14.95;100.00;100959.22;5032394;28;20423;-89
2023/09/17 07:01:18;;;;;;;18.43;12.83;;;;;;;15.04;100.00;100962.09;5047616;28;20426;-88
2023/09/17 07:03:46;;;;;;;17.95;12.82;;;;;;;15.12;100.00;100957.81;5033345;28;20411;-88
2023/09/17 07:06:16;;;;;;;18.93;12.97;;;;;;;15.18;100.00;100955.78;5048104;28;20419;-89
2023/09/17 07:08:44;;;;;;;17.98;12.35;;;;;;;15.19;100.00;100958.25;5030410;28;20430;-89
2023/09/17 07:11:12;;;;;;;18.92;12.73;;;;;;;15.23;100.00;100951.03;5030286;28;20423;-89
2023/09/17 07:13:46;;;;;;;18.42;12.93;;;;;;;15.29;100.00;100958.03;5030793;28;20428;-89
2023/09/17 07:16:20;;;;;;;18.55;13.40;;;;;;;15.35;100.00;100946.97;5047691;28;20907;-88
2023/09/17 07:18:48;;;;;;;18.23;12.30;;;;;;;15.44;100.00;100950.63;5032594;28;20783;-89
2023/09/17 07:21:17;;;;;;;18.25;13.50;;;;;;;15.53;100.00;100951.50;5026489;28;20414;-89
2023/09/17 07:23:50;;;;;;;21.60;13.13;;;;;;;15.60;100.00;100951.91;5030246;28;20431;-89
2023/09/17 07:26:20;;;;;;;17.08;12.32;;;;;;;15.76;100.00;100949.66;5029939;28;20435;-88
2023/09/17 07:28:53;;;;;;;16.70;12.07;;;;;;;16.01;100.00;100949.41;5029731;28;20431;-90
2023/09/17 07:31:27;;;;;;;16.42;11.52;;;;;;;16.04;100.00;100952.34;5047884;28;20438;-90
2023/09/17 07:33:55;;;;;;;16.70;11.70;;;;;;;16.17;100.00;100956.16;5031721;28;20423;-91
2023/09/17 07:36:24;;;;;;;16.92;10.98;;;;;;;16.21;100.00;100954.41;5027915;28;20433;-89
2023/09/17 07:38:52;;;;;;;17.87;12.33;;;;;;;16.30;100.00;100949.00;5047387;28;20590;-90
2023/09/17 07:41:25;;;;;;;16.08;10.85;;;;;;;16.42;100.00;100951.16;5028964;28;20436;-87
2023/09/17 07:43:53;;;;;;;15.88;10.45;;;;;;;16.52;100.00;100950.94;5031658;28;20423;-88
2023/09/17 07:46:28;;;;;;;14.38;9.98;;;;;;;16.66;100.00;100959.09;5026006;28;20434;-88
2023/09/17 07:49:01;;;;;;;14.88;10.55;;;;;;;16.88;100.00;100960.19;5030487;28;20423;-89
2023/09/17 07:51:34;;;;;;;15.25;10.85;;;;;;;17.10;100.00;100962.91;5031857;28;20434;-89
2023/09/17 07:54:08;;;;;;;16.98;10.50;;;;;;;17.31;100.00;100959.56;5030457;28;20423;-89
2023/09/17 07:56:41;;;;;;;12.60;9.30;;;;;;;17.48;100.00;100965.13;5025710;28;20455;-90
2023/09/17 07:59:14;;;;;;;13.20;9.25;;;;;;;17.59;100.00;100960.13;5027601;28;20423;-89
2023/09/17 08:01:46;;;;;;;12.50;8.30;;;;;;;18.01;100.00;100962.50;5029615;28;20431;-87
2023/09/17 08:04:15;;;;;;;12.27;8.57;;;;;;;17.81;100.00;100958.38;5028146;28;20427;-89
2023/09/17 08:06:49;;;;;;;13.25;8.77;;;;;;;17.78;100.00;100959.84;5027627;28;20918;-88
2023/09/17 08:09:18;;;;;;;13.23;8.52;;;;;;;17.82;100.00;100965.50;5031458;28;20900;-88
2023/09/17 08:11:46;;;;;;;14.18;8.05;;;;;;;17.90;100.00;100961.97;5031478;28;20771;-88
2023/09/17 08:14:14;;;;;;;13.70;8.20;;;;;;;17.81;100.00;100959.19;5031238;28;20407;-89
2023/09/17 08:16:49;;;;;;;13.93;8.43;;;;;;;17.89;100.00;100967.78;5030912;28;20427;-87
2023/09/17 08:19:22;;;;;;;12.13;7.90;;;;;;;18.18;100.00;100959.72;5030778;28;20418;-87
2023/09/17 08:21:49;;;;;;;11.40;8.23;;;;;;;18.09;100.00;100967.19;5028267;28;20431;-88
2023/09/17 08:24:20;;;;;;;12.48;8.50;;;;;;;17.99;100.00;100973.00;5024872;28;20446;-88
2023/09/17 08:26:49;;;;;;;12.43;8.65;;;;;;;18.28;100.00;100969.59;5026037;28;20425;-88
2023/09/17 08:29:22;;;;;;;11.18;8.20;;;;;;;18.57;100.00;100965.34;5037129;28;20422;-88
2023/09/17 08:31:51;;;;;;;12.43;8.20;;;;;;;18.38;100.00;100970.41;5038850;28;20427;-86
2023/09/17 08:34:20;;;;;;;13.50;8.40;;;;;;;18.36;100.00;100973.50;5042170;28;20423;-88
2023/09/17 08:36:53;;;;;;;11.35;8.02;;;;;;;18.58;100.00;100974.44;5029280;28;20431;-88
2023/09/17 08:39:26;;;;;;;11.43;7.55;;;;;;;18.66;100.00;100971.66;5034284;28;20415;-88
2023/09/17 08:42:00;;;;;;;12.07;8.02;;;;;;;18.88;100.00;100967.09;5031061;28;20415;-88
2023/09/17 08:44:31;;;;;;;11.82;7.82;;;;;;;18.92;100.00;100968.06;5030829;28;20423;-87
2023/09/17 08:47:06;;;;;;;11.18;7.45;;;;;;;18.84;100.00;100974.38;5030514;28;20418;-88
2023/09/17 08:49:34;;;;;;;10.27;7.40;;;;;;;18.59;100.00;100974.13;5031152;28;20419;-87
2023/09/17 08:52:10;;;;;;;13.82;7.72;;;;;;;18.77;100.00;100974.88;5028968;28;20454;-88
2023/09/17 08:54:43;;;;;;;11.10;6.82;;;;;;;19.03;100.00;100963.78;5043773;28;20411;-87
2023/09/17 08:57:15;;;;;;;9.90;6.73;;;;;;;19.34;100.00;100968.19;5030458;28;20411;-89
2023/09/17 09:00:07;;;;;;;9.38;6.65;;;;;;;18.82;100.00;100973.88;5030202;28;20434;-88
2023/09/17 09:02:44;;;;;;;10.17;6.70;;;;;;;18.74;100.00;100972.78;5029727;28;20407;-88
2023/09/17 09:05:18;;;;;;;14.45;7.28;;;;;;;18.85;100.00;100970.47;5030648;28;20411;-88
2023/09/17 09:07:47;;;;;;;9.98;7.15;;;;;;;18.92;100.00;100970.81;5026864;28;20752;-89
2023/09/17 09:10:22;;;;;;;11.02;6.80;;;;;;;19.22;100.00;100981.09;5028357;28;20486;-87
2023/09/17 09:12:56;;;;;;;9.93;6.63;;;;;;;19.33;100.00;100971.28;5029363;28;20438;-88
2023/09/17 09:15:25;;;;;;;10.65;6.63;;;;;;;19.57;100.00;100973.44;5030293;28;20418;-87
2023/09/17 09:18:00;;;;;;;10.10;6.40;;;;;;;19.30;100.00;100970.00;5028690;28;20423;-89
2023/09/17 09:20:34;;;;;;;11.45;7.53;;;;;;;19.30;100.00;100970.00;5028412;28;20433;-89
2023/09/17 09:23:07;;;;;;;11.70;6.77;;;;;;;19.29;100.00;100968.41;5029804;28;20441;-88
2023/09/17 09:25:40;;;;;;;9.90;6.82;;;;;;;19.48;100.00;100961.63;5030779;28;20787;-88
2023/09/17 09:28:09;;;;;;;9.23;6.55;;;;;;;19.60;100.00;100958.97;5034724;28;20804;-87
2023/09/17 09:30:43;;;;;;;10.60;6.63;;;;;;;20.08;100.00;100969.84;5045015;28;20787;-88
2023/09/17 09:33:13;;;;;;;8.57;5.97;;;;;;;19.98;100.00;100966.38;5043350;28;20795;-89
2023/09/17 09:35:42;;;;;;;10.30;6.43;;;;;;;20.11;100.00;100955.38;5027108;28;20474;-87
2023/09/17 09:38:17;;;;;;;9.40;6.10;;;;;;;20.21;100.00;100963.25;5044737;28;20493;-87
2023/09/17 09:40:51;;;;;;;9.02;5.97;;;;;;;20.21;100.00;100957.72;5029326;28;20427;-87
2023/09/17 09:43:31;;;;;;;9.52;6.20;;;;;;;19.94;100.00;100956.31;5028234;28;20441;-86
2023/09/17 09:46:06;;;;;;;11.27;6.17;;;;;;;20.01;100.00;100962.09;5024574;28;20426;-86
2023/09/17 09:48:41;;;;;;;12.20;5.93;;;;;;;20.05;100.00;100957.53;5017388;28;20431;-88
2023/09/17 09:51:17;;;;;;;10.90;6.07;;;;;;;20.33;100.00;100963.31;5026312;28;20419;-87
2023/09/17 09:53:50;;;;;;;8.93;5.87;;;;;;;20.51;100.00;100958.41;5025986;28;20500;-85
2023/09/17 09:56:21;;;;;;;9.02;5.97;;;;;;;20.17;100.00;100965.88;5027044;28;20876;-86
2023/09/17 09:58:49;;;;;;;10.65;6.03;;;;;;;20.18;100.00;100963.94;5035942;28;20441;-86
2023/09/17 10:01:18;;;;;;;9.85;5.85;;;;;;;19.98;100.00;100960.84;5027252;28;20434;-88
2023/09/17 10:03:57;;;;;;;9.00;5.90;;;;;;;19.74;100.00;100960.66;5028374;28;20783;-87
2023/09/17 10:06:31;;;;;;;9.20;5.97;;;;;;;19.88;100.00;100955.72;5042592;28;20431;-87
2023/09/17 10:09:06;;;;;;;9.23;6.22;;;;;;;19.87;100.00;100959.59;5029995;28;21225;-86
2023/09/17 10:11:39;;;;;;;11.10;6.60;;;;;;;20.19;100.00;100952.53;5028877;28;20446;-87
2023/09/17 10:14:15;;;;;;;11.25;6.50;;;;;;;20.00;100.00;100943.94;5030113;28;20888;-89
2023/09/17 10:16:44;;;;;;;8.75;5.93;;;;;;;20.08;100.00;100953.28;5028416;28;20433;-86
2023/09/17 10:19:20;;;;;;;9.02;6.10;;;;;;;20.16;100.00;100942.16;5029848;28;20428;-86
2023/09/17 10:21:54;;;;;;;8.90;6.00;;;;;;;20.31;100.00;100942.69;5042370;28;20430;-86
2023/09/17 10:24:24;;;;;;;9.85;6.40;;;;;;;20.18;100.00;100942.63;5026227;28;20427;-88
2023/09/17 10:26:54;;;;;;;10.20;6.30;;;;;;;20.27;100.00;100939.78;5030684;28;20423;-86
2023/09/17 10:29:24;;;;;;;10.02;5.82;;;;;;;20.52;100.00;100937.91;5033355;28;20403;-86
2023/09/17 10:31:59;;;;;;;8.70;6.10;;;;;;;20.72;100.00;100930.72;5031799;28;20407;-85
2023/09/17 10:34:30;;;;;;;8.88;6.15;;;;;;;20.84;100.00;100932.72;5044608;28;20443;-86
2023/09/17 10:36:59;;;;;;;9.55;5.68;;;;;;;20.62;100.00;100933.06;5030695;28;20430;-88
2023/09/17 10:39:33;;;;;;;9.63;5.80;;;;;;;20.73;100.00;100945.38;5031740;28;20424;-87
2023/09/17 10:42:03;;;;;;;9.68;5.82;;;;;;;20.91;100.00;100934.91;5050331;28;20431;-86
2023/09/17 10:44:39;;;;;;;11.02;6.22;;;;;;;21.32;100.00;100930.31;5030608;28;20423;-87
2023/09/17 10:47:14;;;;;;;8.45;5.82;;;;;;;21.60;100.00;100935.16;5032884;28;20426;-85
2023/09/17 10:49:49;;;;;;;9.27;5.70;;;;;;;21.81;100.00;100934.97;5028708;28;20442;-84
2023/09/17 10:52:23;;;;;;;8.27;5.63;;;;;;;21.76;100.00;100924.13;5029973;28;20430;-85
2023/09/17 10:54:52;;;;;;;9.82;5.43;;;;;;;21.59;100.00;100932.72;5031148;28;20423;-87
2023/09/17 10:57:24;;;;;;;9.60;5.80;;;;;;;21.28;100.00;100932.16;5031816;28;20457;-86
2023/09/17 10:59:55;;;;;;;7.90;5.43;;;;;;;21.15;100.00;100927.78;5031119;28;20914;-86
2023/09/17 11:02:29;;;;;;;9.18;5.82;;;;;;;21.17;100.00;100931.81;5047326;28;20434;-86
2023/09/17 11:05:08;;;;;;;8.33;5.80;;;;;;;21.02;100.00;100929.75;5030998;28;20957;-86
2023/09/17 11:07:37;;;;;;;8.32;5.35;;;;;;;21.11;100.00;100927.66;5028178;28;20434;-86
2023/09/17 11:10:14;;;;;;;8.35;5.47;;;;;;;21.34;100.00;100928.00;5046938;28;20423;-88
2023/09/17 11:12:48;;;;;;;9.55;5.68;;;;;;;21.18;100.00;100925.09;5029827;28;20427;-88
2023/09/17 11:15:21;;;;;;;8.40;5.60;;;;;;;21.15;100.00;100925.78;5039770;28;20783;-87
2023/09/17 11:18:00;;;;;;;8.68;6.00;;;;;;;21.20;100.00;100924.78;5046986;28;20438;-85
2023/09/17 11:20:30;;;;;;;8.70;5.30;;;;;;;21.15;100.00;100917.50;5034405;28;20426;-86
2023/09/17 11:23:05;;;;;;;10.30;5.78;;;;;;;21.26;100.00;100923.38;5047356;28;20945;-86
2023/09/17 11:25:39;;;;;;;8.52;5.53;;;;;;;21.51;100.00;100924.16;5047216;28;20838;-87
2023/09/17 11:28:15;;;;;;;9.80;5.90;;;;;;;21.60;100.00;100918.53;5030671;28;20426;-86